createdAt,value
2022-09-25T00:04:15.887Z,19.6
2022-09-25T00:09:40.577Z,19.5
2022-09-25T00:15:18.366Z,19.5
2022-09-25T00:20:55.889Z,19.6
2022-09-25T00:26:32.827Z,19.5
2022-09-25T00:32:10.801Z,19.5
2022-09-25T00:37:33.298Z,19.5
2022-09-25T00:42:55.417Z,19.5
2022-09-25T00:48:16.679Z,19.5
2022-09-25T00:53:54.599Z,19.5
2022-09-25T00:59:16.702Z,19.4
2022-09-25T01:04:54.568Z,19.5
2022-09-25T01:10:33.155Z,19.5
2022-09-25T01:16:09.624Z,19.5
2022-09-25T01:21:32.891Z,19.4
2022-09-25T01:27:11.050Z,19.4
2022-09-25T01:32:48.036Z,19.5
2022-09-25T01:38:25.438Z,19.4
2022-09-25T01:44:03.278Z,19.5
2022-09-25T01:49:24.347Z,19.4
2022-09-25T01:54:45.516Z,19.4
2022-09-25T02:00:07.424Z,19.5
2022-09-25T02:05:45.530Z,19.4
2022-09-25T02:11:06.611Z,19.5
2022-09-25T02:16:28.466Z,19.4
2022-09-25T02:21:34.890Z,19.4
2022-09-25T02:26:56.435Z,19.4
2022-09-25T02:32:19.217Z,19.4
2022-09-25T02:37:45.274Z,19.4
2022-09-25T02:42:51.402Z,19.4
2022-09-25T02:48:29.324Z,19.4
2022-09-25T02:53:49.757Z,19.4
2022-09-25T02:59:33.306Z,19.4
2022-09-25T03:05:11.034Z,19.4
2022-09-25T03:10:33.460Z,19.4
2022-09-25T03:15:39.349Z,19.4
2022-09-25T03:21:02.482Z,19.4
2022-09-25T03:26:08.660Z,19.4
2022-09-25T03:31:30.995Z,19.4
2022-09-25T03:36:53.066Z,19.3
2022-09-25T03:41:58.653Z,19.4
2022-09-25T03:47:19.570Z,19.4
2022-09-25T03:52:40.959Z,19.4
2022-09-25T03:57:32.153Z,19.3
2022-09-25T04:02:55.055Z,19.3
2022-09-25T04:08:17.052Z,19.4
2022-09-25T04:13:07.753Z,19.3
2022-09-25T04:18:29.840Z,19.3
2022-09-25T04:23:36.688Z,19.3
2022-09-25T04:28:27.981Z,19.3
2022-09-25T04:33:49.702Z,19.3
2022-09-25T04:39:27.586Z,19.3
2022-09-25T04:44:49.385Z,19.3
2022-09-25T04:50:16.289Z,19.3
2022-09-25T04:55:38.648Z,19.3
2022-09-25T05:01:34.205Z,19.3
2022-09-25T05:06:58.622Z,19.3
2022-09-25T05:12:21.229Z,19.3
2022-09-25T05:17:43.846Z,19.3
2022-09-25T05:23:06.379Z,19.3
2022-09-25T05:28:34.795Z,19.4
2022-09-25T05:33:41.171Z,19.3
2022-09-25T05:39:18.960Z,19.3
2022-09-25T05:44:56.931Z,19.3
2022-09-25T05:50:19.461Z,19.3
2022-09-25T05:55:57.815Z,19.3
2022-09-25T06:01:04.125Z,19.4
2022-09-25T06:17:39.105Z,19.4
2022-09-25T06:23:19.116Z,19.4
2022-09-25T06:28:59.766Z,19.4
2022-09-25T06:34:41.576Z,19.4
2022-09-25T06:40:20.236Z,19.4
2022-09-25T06:46:00.172Z,19.4
2022-09-25T06:51:44.134Z,19.4
2022-09-25T06:57:21.349Z,19.4
2022-09-25T07:02:50.182Z,19.4
2022-09-25T07:08:28.119Z,19.5
2022-09-25T07:14:05.934Z,19.5
2022-09-25T07:19:44.487Z,19.6
2022-09-25T07:25:22.336Z,19.6
2022-09-25T07:31:00.548Z,19.6
2022-09-25T07:36:38.493Z,19.6
2022-09-25T07:42:22.698Z,19.6
2022-09-25T07:48:26.306Z,19.6
2022-09-25T07:53:52.635Z,19.6
2022-09-25T07:59:32.102Z,19.6
2022-09-25T08:05:19.218Z,19.6
2022-09-25T08:10:58.231Z,19.7
2022-09-25T08:16:42.347Z,19.7
2022-09-25T08:22:06.799Z,19.6
2022-09-25T08:27:46.966Z,19.7
2022-09-25T08:33:32.161Z,19.7
2022-09-25T08:39:25.394Z,19.6
2022-09-25T08:45:33.289Z,19.6
2022-09-25T08:51:14.525Z,19.6
2022-09-25T08:56:42.303Z,19.7
2022-09-25T09:02:22.603Z,19.6
2022-09-25T09:08:15.170Z,19.6
2022-09-25T09:13:29.179Z,19.6
2022-09-25T09:18:37.532Z,19.7
2022-09-25T09:24:06.223Z,19.6
2022-09-25T09:29:30.365Z,19.6
2022-09-25T09:35:01.493Z,19.6
2022-09-25T09:40:51.153Z,19.6
2022-09-25T09:46:15.515Z,19.6
2022-09-25T09:51:58.965Z,19.6
2022-09-25T09:57:39.069Z,19.6
2022-09-25T10:03:52.410Z,19.6
2022-09-25T10:09:32.367Z,19.6
2022-09-25T10:15:12.242Z,19.6
2022-09-25T10:20:52.333Z,19.6
2022-09-25T20:09:39.827Z,20.3
2022-09-25T20:15:20.237Z,20.3
2022-09-25T20:21:03.836Z,20.3
2022-09-25T20:26:29.847Z,20.2
2022-09-25T20:32:10.318Z,20.3
2022-09-25T20:37:34.846Z,20.3
2022-09-25T20:43:17.349Z,20.3
2022-09-25T20:48:42.185Z,20.3
2022-09-25T20:54:22.046Z,20.2
2022-09-25T21:00:02.833Z,20.2
2022-09-25T21:05:43.839Z,20.3
2022-09-25T21:11:12.191Z,20.3
2022-09-25T21:16:53.226Z,20.2
2022-09-25T21:22:32.396Z,20.3
2022-09-25T21:28:11.640Z,20.3
2022-09-25T21:33:39.236Z,20.2
2022-09-25T21:39:21.137Z,20.2
2022-09-25T21:44:44.691Z,20.2
2022-09-25T21:50:25.222Z,20.1
2022-09-25T21:56:03.613Z,20.2
2022-09-25T22:01:42.293Z,20.2
2022-09-25T22:07:22.226Z,20.2
2022-09-25T22:13:00.762Z,20.2
2022-09-25T22:18:26.832Z,20.2
2022-09-25T22:23:50.102Z,20.1
2022-09-25T22:29:28.321Z,20.2
2022-09-25T22:34:50.932Z,20.1
2022-09-25T22:40:35.817Z,20.1
2022-09-25T22:45:57.465Z,20.2
2022-09-25T22:51:34.705Z,20.2
2022-09-25T22:57:12.398Z,20.1
2022-09-25T23:02:50.292Z,20.1
2022-09-25T23:08:27.705Z,20.1
2022-09-25T23:14:28.324Z,20.1
2022-09-25T23:20:05.634Z,20.1
2022-09-25T23:25:42.068Z,20.1
2022-09-25T23:31:05.509Z,20.1
2022-09-25T23:36:26.777Z,20.1
2022-09-25T23:41:53.410Z,20.1
2022-09-25T23:47:16.543Z,20.1
2022-09-25T23:52:54.272Z,20.1
2022-09-25T23:58:31.231Z,20.1
